Time;durP1;ratioP1;P1;durP2;ratioP2;P2;SDS_P1;SDS_P2;PMS_P1;PMS_P2;Temp;Humidity;BMP_temperature;BMP_pressure;BME280_temperature;BME280_humidity;BME280_pressure;Samples;Min_cycle;Max_cycle;Signal;HPM_P1;HPM_P2
2022/06/24 00:00:10;;;;;;;49.80;40.33;;;;;;;28.90;75.34;100821.56;5016399;28;69242;-35
2022/06/24 00:02:47;;;;;;;43.60;37.60;;;;;;;28.98;75.64;100828.63;5018234;28;66383;-34
2022/06/24 00:05:36;;;;;;;51.55;35.92;;;;;;;29.01;76.13;100832.78;5008257;28;70447;-35
2022/06/24 00:08:07;;;;;;;38.95;34.38;;;;;;;29.07;75.60;100826.56;5018400;28;65849;-36
2022/06/24 00:10:38;;;;;;;45.90;34.65;;;;;;;29.07;74.51;100826.56;5018451;28;70152;-35
2022/06/24 00:13:09;;;;;;;36.33;32.28;;;;;;;29.13;76.80;100833.84;5016108;28;66350;-36
2022/06/24 00:15:41;;;;;;;35.90;32.13;;;;;;;29.17;76.84;100833.22;5017177;28;70883;-36
2022/06/24 00:18:18;;;;;;;45.72;32.70;;;;;;;29.18;76.36;100824.06;5015898;28;65839;-36
2022/06/24 00:20:50;;;;;;;40.25;31.92;;;;;;;28.96;76.44;100787.50;5013942;28;70230;-36
2022/06/24 00:23:22;;;;;;;32.40;29.05;;;;;;;29.26;76.33;100836.53;5016837;28;65855;-36
2022/06/24 00:25:53;;;;;;;32.35;28.92;;;;;;;29.25;76.73;100826.75;5016936;28;67906;-37
2022/06/24 00:28:25;;;;;;;35.77;29.63;;;;;;;29.27;75.96;100832.78;5020676;28;65958;-36
2022/06/24 03:03:40;;;;;;;15.40;13.82;;;;;;;29.33;72.13;100783.28;5021051;27;2412148;-39
2022/06/24 03:06:12;;;;;;;14.90;12.95;;;;;;;29.45;71.98;100788.03;5086928;27;70094;-39
2022/06/24 03:08:43;;;;;;;14.73;13.52;;;;;;;29.58;70.95;100778.00;5088711;27;66165;-44
2022/06/24 03:11:14;;;;;;;13.68;12.77;;;;;;;29.74;70.94;100779.44;5089198;27;69569;-40
2022/06/24 03:13:45;;;;;;;14.45;13.35;;;;;;;29.88;70.61;100773.97;5092095;27;66713;-41
2022/06/24 03:16:16;;;;;;;14.93;13.77;;;;;;;30.01;70.12;100774.72;5093074;27;71729;-39
2022/06/24 03:18:47;;;;;;;13.77;12.75;;;;;;;30.14;69.40;100770.28;5097108;27;67226;-40
2022/06/24 03:21:18;;;;;;;13.50;12.65;;;;;;;30.27;69.03;100771.03;5089085;27;70330;-39
2022/06/24 03:23:49;;;;;;;13.02;12.23;;;;;;;30.14;68.48;100724.28;5086904;27;65834;-39
2022/06/24 03:26:20;;;;;;;13.98;12.98;;;;;;;30.49;68.67;100767.97;5093076;27;70020;-39
2022/06/24 03:28:51;;;;;;;13.97;12.93;;;;;;;30.55;68.01;100769.78;5084374;27;65264;-39
2022/06/24 03:31:22;;;;;;;13.73;12.30;;;;;;;30.65;67.92;100767.44;5076334;27;70444;-39
2022/06/24 03:33:55;;;;;;;13.90;12.82;;;;;;;30.70;67.85;100762.19;5067422;27;64647;-39
2022/06/24 03:36:26;;;;;;;13.43;12.27;;;;;;;30.77;67.17;100761.28;5086839;27;69569;-39
2022/06/24 03:38:57;;;;;;;13.60;12.60;;;;;;;30.87;67.23;100767.03;5087254;27;67970;-39
2022/06/24 03:41:28;;;;;;;14.30;12.90;;;;;;;30.90;66.90;100766.63;5071623;27;70700;-40
2022/06/24 03:44:01;;;;;;;13.10;12.05;;;;;;;30.65;66.87;100715.16;5091200;27;66664;-38
2022/06/24 03:46:32;;;;;;;13.07;12.07;;;;;;;31.02;66.41;100762.09;5092697;27;69591;-39
2022/06/24 03:49:03;;;;;;;13.98;12.60;;;;;;;31.05;66.04;100767.06;5072322;27;67509;-39
2022/06/24 03:51:35;;;;;;;13.07;12.07;;;;;;;31.05;65.99;100758.94;5087300;27;71908;-38
2022/06/24 03:54:06;;;;;;;13.07;11.88;;;;;;;31.12;66.11;100765.13;5089965;27;66431;-39
2022/06/24 03:56:37;;;;;;;12.70;11.85;;;;;;;31.21;65.63;100767.56;5089243;27;69681;-40
2022/06/24 03:59:13;;;;;;;11.52;10.63;;;;;;;31.23;65.41;100755.44;5090596;27;66336;-40
2022/06/24 04:01:44;;;;;;;12.20;11.15;;;;;;;31.14;65.78;100735.91;5087367;27;68713;-40
2022/06/24 04:04:15;;;;;;;12.45;11.48;;;;;;;31.28;65.18;100744.72;5076957;27;65787;-42
2022/06/24 04:06:47;;;;;;;11.98;11.18;;;;;;;31.29;65.59;100732.03;5080001;28;70637;-39
2022/06/24 04:09:18;;;;;;;11.63;10.52;;;;;;;31.33;65.53;100733.22;5077669;28;68025;-39
2022/06/24 04:11:50;;;;;;;12.50;11.40;;;;;;;31.37;65.13;100729.00;5076999;28;69995;-38
2022/06/24 04:17:10;;;;;;;11.32;10.40;;;;;;;31.39;64.60;100716.88;5060787;28;70517;-38
2022/06/24 04:19:41;;;;;;;10.65;9.90;;;;;;;31.43;64.66;100717.28;5081598;28;67090;-39
2022/06/24 04:22:12;;;;;;;11.75;10.75;;;;;;;31.48;64.96;100709.28;5074339;28;69263;-39
2022/06/24 04:24:44;;;;;;;11.40;10.55;;;;;;;31.52;64.52;100694.22;5076627;28;65458;-38
2022/06/24 04:27:15;;;;;;;11.55;10.45;;;;;;;31.56;64.70;100698.09;5075497;28;69981;-39
2022/06/24 04:29:46;;;;;;;11.17;10.27;;;;;;;31.58;64.12;100697.88;5079868;28;66089;-38
2022/06/24 04:32:17;;;;;;;10.73;9.80;;;;;;;31.59;64.22;100684.13;5076609;28;71867;-39
2022/06/24 04:34:48;;;;;;;10.40;9.70;;;;;;;31.61;64.35;100687.41;5077596;28;65747;-39
2022/06/24 04:37:19;;;;;;;10.73;9.75;;;;;;;31.63;63.83;100678.22;5058932;28;70103;-39
2022/06/24 04:39:50;;;;;;;11.18;10.32;;;;;;;31.65;64.07;100682.38;5072926;28;66539;-39
2022/06/24 04:42:22;;;;;;;10.63;9.80;;;;;;;31.67;64.02;100674.00;5077945;28;69173;-39
2022/06/24 04:44:53;;;;;;;9.50;8.85;;;;;;;31.69;63.96;100667.28;5077497;28;66795;-39
2022/06/24 04:47:24;;;;;;;10.07;9.17;;;;;;;31.68;63.94;100664.78;5068423;28;69337;-39
2022/06/24 04:49:55;;;;;;;10.75;9.75;;;;;;;31.71;63.57;100662.47;5080231;28;65915;-40
2022/06/24 04:52:26;;;;;;;10.18;9.27;;;;;;;31.73;63.75;100648.66;5076643;28;69710;-39
2022/06/24 04:54:58;;;;;;;10.50;9.73;;;;;;;31.74;64.01;100653.03;5077232;28;66152;-40
2022/06/24 04:57:29;;;;;;;9.77;8.88;;;;;;;31.76;63.43;100642.75;5072721;28;70600;-41
2022/06/24 05:00:00;;;;;;;9.40;8.90;;;;;;;31.78;63.52;100643.34;5073593;28;65342;-42
2022/06/24 05:02:31;;;;;;;10.65;9.75;;;;;;;31.77;63.27;100634.41;5076653;28;69979;-40
2022/06/24 05:05:05;;;;;;;9.23;8.45;;;;;;;31.75;63.26;100627.56;5073208;28;65427;-40
2022/06/24 05:07:38;;;;;;;9.45;8.85;;;;;;;31.76;63.15;100618.34;5059667;28;69920;-39
2022/06/24 05:10:09;;;;;;;9.23;8.50;;;;;;;31.85;63.28;100624.28;5079341;28;65776;-41
2022/06/24 05:12:40;;;;;;;8.77;8.23;;;;;;;31.86;63.24;100618.63;5075459;27;70257;-39
2022/06/24 05:15:11;;;;;;;8.38;7.65;;;;;;;31.89;63.18;100612.72;5071922;28;67490;-40
2022/06/24 05:17:42;;;;;;;9.07;8.40;;;;;;;31.91;63.16;100615.22;5074802;28;70311;-39
2022/06/24 05:20:13;;;;;;;8.82;8.32;;;;;;;31.92;63.08;100606.84;5078041;28;65838;-39
2022/06/24 05:22:45;;;;;;;9.48;8.60;;;;;;;31.95;63.12;100603.69;5072509;28;70179;-39
2022/06/24 05:25:16;;;;;;;9.98;8.98;;;;;;;31.92;62.88;100596.00;5077715;28;65695;-39
2022/06/24 05:27:47;;;;;;;9.53;8.77;;;;;;;31.98;62.97;100589.66;5077163;28;69342;-41
2022/06/24 05:30:18;;;;;;;9.17;8.10;;;;;;;32.02;62.93;100590.00;5080872;28;65616;-38
2022/06/24 05:32:49;;;;;;;8.13;7.40;;;;;;;32.04;62.93;100580.59;5077815;28;70358;-39
2022/06/24 05:35:20;;;;;;;9.13;8.43;;;;;;;32.07;62.93;100584.72;5075618;28;65429;-39
2022/06/24 05:37:51;;;;;;;8.38;7.68;;;;;;;32.11;62.50;100583.16;5077452;28;69491;-39
2022/06/24 05:40:22;;;;;;;8.60;8.00;;;;;;;32.11;62.81;100574.22;5078509;28;67450;-39
2022/06/24 05:42:53;;;;;;;9.10;8.18;;;;;;;32.17;62.52;100575.97;5068416;28;69608;-39
2022/06/24 05:45:24;;;;;;;8.20;7.68;;;;;;;32.12;62.55;100562.28;5074240;28;66354;-39
2022/06/24 05:47:55;;;;;;;8.13;7.43;;;;;;;32.17;62.33;100559.69;5059457;28;70108;-40
2022/06/24 05:50:25;;;;;;;7.93;7.40;;;;;;;32.20;62.46;100564.63;5070875;28;66295;-39
2022/06/24 05:55:46;;;;;;;8.10;7.40;;;;;;;32.21;62.66;100555.44;5075611;28;66560;-39
2022/06/24 05:58:17;;;;;;;7.55;7.15;;;;;;;32.21;62.15;100547.31;5078397;28;69974;-39
2022/06/24 06:00:48;;;;;;;7.85;7.13;;;;;;;32.00;62.33;100511.56;5076637;28;66519;-40
2022/06/24 06:03:19;;;;;;;8.02;7.43;;;;;;;32.24;62.19;100538.69;5068582;28;70178;-40
2022/06/24 06:05:51;;;;;;;7.73;7.23;;;;;;;32.26;62.34;100541.97;5074871;28;65576;-40
2022/06/24 06:08:23;;;;;;;7.68;7.07;;;;;;;32.27;62.14;100532.78;5076801;28;69752;-38
2022/06/24 06:10:54;;;;;;;7.47;6.93;;;;;;;32.27;62.19;100527.34;5059620;28;65777;-38
2022/06/24 06:13:25;;;;;;;7.88;6.90;;;;;;;32.20;62.28;100502.22;5078262;28;70290;-38
2022/06/24 06:15:56;;;;;;;7.75;7.15;;;;;;;32.24;62.14;100500.69;5078666;28;66112;-39
2022/06/24 06:18:27;;;;;;;7.90;7.15;;;;;;;32.27;62.21;100505.66;5068424;28;70273;-40
2022/06/24 06:21:02;;;;;;;7.65;6.93;;;;;;;32.29;61.63;100511.66;5074001;28;67182;-39
2022/06/24 06:23:34;;;;;;;6.82;6.43;;;;;;;32.24;61.86;100500.69;5076390;28;70627;-38
2022/06/24 06:26:08;;;;;;;6.70;6.05;;;;;;;31.78;61.68;100410.13;5075328;28;65896;-38
2022/06/24 06:28:41;;;;;;;7.47;6.78;;;;;;;32.17;61.91;100462.81;5078224;28;70463;-39
2022/06/24 06:31:12;;;;;;;6.95;6.55;;;;;;;32.37;61.93;100489.56;5077652;28;65684;-39
2022/06/24 06:33:43;;;;;;;7.68;6.97;;;;;;;32.35;62.12;100471.88;5073440;28;68873;-38
2022/06/24 06:36:15;;;;;;;6.53;6.00;;;;;;;32.39;62.23;100460.28;5074617;28;66111;-39
2022/06/24 06:38:46;;;;;;;6.90;6.30;;;;;;;32.45;61.86;100459.31;5074856;28;70004;-39
2022/06/24 06:41:18;;;;;;;6.63;6.22;;;;;;;32.45;61.75;100453.88;5070385;28;65745;-39
2022/06/24 06:43:49;;;;;;;6.83;6.33;;;;;;;32.44;61.66;100452.25;5066158;28;69554;-38
2022/06/24 06:46:26;;;;;;;6.35;5.80;;;;;;;32.52;61.43;100452.97;5077632;28;65669;-40
2022/06/24 06:48:57;;;;;;;6.75;6.35;;;;;;;32.52;61.61;100447.53;5077141;28;69424;-39
2022/06/24 06:51:28;;;;;;;6.18;5.80;;;;;;;32.51;61.69;100456.75;5079169;28;66370;-39
2022/06/24 06:53:59;;;;;;;6.73;6.33;;;;;;;32.53;61.49;100465.47;5076886;28;69952;-39
2022/06/24 06:56:30;;;;;;;6.72;6.32;;;;;;;32.53;61.35;100450.00;5071743;28;66584;-38
2022/06/24 06:59:02;;;;;;;7.28;6.18;;;;;;;32.53;61.68;100443.75;5076183;28;70026;-40
2022/06/24 07:01:33;;;;;;;6.45;6.05;;;;;;;32.54;61.52;100439.97;5079143;28;66044;-40
2022/06/24 07:04:04;;;;;;;6.15;5.75;;;;;;;32.54;61.51;100434.53;5074560;28;69989;-39
2022/06/24 07:06:35;;;;;;;6.28;5.85;;;;;;;32.51;61.31;100421.44;5077417;28;67232;-39
2022/06/24 07:09:07;;;;;;;6.78;6.13;;;;;;;32.53;61.64;100422.03;5078238;28;70672;-39
2022/06/24 07:11:38;;;;;;;7.47;5.95;;;;;;;32.55;61.72;100422.63;5077374;28;65091;-40
2022/06/24 07:14:09;;;;;;;6.40;6.00;;;;;;;32.55;61.52;100414.47;5077521;28;69543;-38
2022/06/24 07:16:40;;;;;;;6.53;5.93;;;;;;;32.52;61.55;100404.09;5076731;28;67143;-39
2022/06/24 07:19:11;;;;;;;7.13;6.07;;;;;;;32.56;61.40;100410.69;5069072;28;69909;-40
2022/06/24 07:21:42;;;;;;;6.10;5.70;;;;;;;32.57;61.58;100417.75;5076551;28;65729;-40
2022/06/24 07:24:14;;;;;;;5.93;5.50;;;;;;;32.55;61.58;100419.91;5076637;28;70202;-39
2022/06/24 07:26:44;;;;;;;5.82;5.43;;;;;;;32.53;61.59;100408.47;5074892;28;65919;-40
2022/06/24 07:29:15;;;;;;;5.53;5.13;;;;;;;32.55;61.57;100409.88;5078338;28;69215;-39
2022/06/24 07:31:47;;;;;;;5.95;5.55;;;;;;;32.57;61.88;100412.31;5078139;28;67109;-40
2022/06/24 07:34:26;;;;;;;6.00;5.60;;;;;;;32.58;61.55;100408.56;5075896;28;70302;-38
2022/06/24 07:36:59;;;;;;;5.80;5.30;;;;;;;32.36;61.66;100386.66;5066668;28;66682;-38
2022/06/24 07:39:30;;;;;;;5.25;4.95;;;;;;;32.54;61.63;100423.66;5074905;28;69577;-38
2022/06/24 07:42:01;;;;;;;5.63;5.30;;;;;;;32.55;61.82;100430.75;5079173;28;65996;-40
2022/06/24 07:44:32;;;;;;;7.90;5.68;;;;;;;32.52;61.59;100431.25;5080954;28;72538;-40
2022/06/24 07:47:03;;;;;;;6.00;5.20;;;;;;;32.56;61.74;100437.84;5079831;28;66541;-39
2022/06/24 07:49:34;;;;;;;;;;;;;;;32.24;62.27;100439.09;5081048;28;69115;-40
2022/06/24 07:52:10;;;;;;;4.75;4.45;;;;;;;32.45;61.68;100432.16;5078941;28;66473;-39
2022/06/24 07:54:40;;;;;;;5.38;4.97;;;;;;;32.55;62.01;100441.63;5082102;28;69339;-40
2022/06/24 07:57:11;;;;;;;5.63;5.30;;;;;;;32.46;61.80;100433.88;5077628;28;66270;-40
2022/06/24 07:59:45;;;;;;;5.05;4.70;;;;;;;32.45;62.16;100437.59;5075171;28;70156;-39
2022/06/24 08:02:17;;;;;;;6.88;5.38;;;;;;;32.53;61.85;100454.63;5063136;28;65999;-39
2022/06/24 08:04:49;;;;;;;5.13;4.83;;;;;;;32.51;61.91;100456.75;5071827;28;70459;-40
2022/06/24 08:07:21;;;;;;;5.90;5.40;;;;;;;32.52;62.05;100458.41;5073440;28;66528;-39
2022/06/24 08:09:52;;;;;;;6.15;5.60;;;;;;;32.45;62.10;100462.03;5079340;28;69973;-41
2022/06/24 08:12:22;;;;;;;4.90;4.60;;;;;;;32.46;62.19;100466.44;5076590;28;66386;-40
2022/06/24 08:14:54;;;;;;;5.15;4.85;;;;;;;32.41;62.33;100468.19;5076786;28;70596;-39
2022/06/24 08:17:25;;;;;;;4.90;4.60;;;;;;;32.35;62.15;100464.56;5074857;28;65466;-41
2022/06/24 08:19:56;;;;;;;4.70;4.45;;;;;;;32.39;62.10;100473.84;5074414;28;70490;-40
2022/06/24 08:22:27;;;;;;;4.85;4.50;;;;;;;32.41;62.14;100474.44;5061277;28;65925;-39
2022/06/24 08:24:58;;;;;;;4.55;4.25;;;;;;;32.40;62.35;100472.81;5079554;28;71722;-39
2022/06/24 08:27:50;;;;;;;5.00;4.60;;;;;;;32.35;62.31;100478.13;5080724;28;65371;-41
2022/06/24 08:30:21;;;;;;;4.00;3.80;;;;;;;32.38;62.53;100474.13;5077548;28;70434;-40
2022/06/24 08:32:52;;;;;;;4.40;4.10;;;;;;;32.37;62.73;100475.97;5075233;28;66602;-39
2022/06/24 08:35:23;;;;;;;4.27;4.00;;;;;;;32.33;62.46;100461.25;5074755;28;69203;-39
2022/06/24 08:37:58;;;;;;;4.50;4.20;;;;;;;32.37;62.48;100472.44;5080804;28;67158;-40
2022/06/24 08:40:30;;;;;;;4.97;3.88;;;;;;;32.14;62.29;100427.19;5080704;28;69346;-40
2022/06/24 08:43:01;;;;;;;4.30;4.00;;;;;;;32.30;62.63;100458.19;5075252;28;66023;-39
2022/06/24 08:45:32;;;;;;;4.70;4.30;;;;;;;32.31;62.48;100463.38;5078708;28;69765;-39
2022/06/24 08:48:07;;;;;;;4.63;4.27;;;;;;;32.32;62.42;100458.75;5072650;28;67164;-40
2022/06/24 08:50:39;;;;;;;4.68;4.38;;;;;;;32.31;62.52;100459.84;5080803;27;70353;-39
2022/06/24 08:53:12;;;;;;;4.72;4.43;;;;;;;32.31;62.50;100468.81;5076982;28;65310;-39
2022/06/24 08:55:44;;;;;;;4.18;3.88;;;;;;;32.29;62.28;100465.53;5072236;28;70360;-39
2022/06/24 08:58:15;;;;;;;5.07;4.22;;;;;;;32.28;62.36;100458.44;5075853;28;65414;-40
2022/06/24 09:00:46;;;;;;;4.70;4.40;;;;;;;32.27;62.45;100473.91;5079383;28;70750;-39
2022/06/24 09:03:17;;;;;;;4.13;3.73;;;;;;;32.26;62.42;100490.41;5072405;28;68113;-39
2022/06/24 09:05:48;;;;;;;4.78;4.40;;;;;;;32.26;62.27;100487.69;5059788;28;69869;-39
2022/06/24 09:08:20;;;;;;;9.93;4.35;;;;;;;32.22;62.46;100472.97;5075772;28;66017;-39
2022/06/24 09:11:08;;;;;;;4.65;4.35;;;;;;;32.15;62.46;100480.41;5072188;28;69600;-39
2022/06/24 09:13:46;;;;;;;5.03;4.38;;;;;;;32.17;62.24;100467.41;5078529;28;66588;-40
2022/06/24 09:16:19;;;;;;;4.95;4.65;;;;;;;32.01;62.49;100425.56;5073195;28;70643;-39
2022/06/24 09:18:55;;;;;;;5.20;4.80;;;;;;;32.22;62.85;100448.53;5077472;28;66185;-39
2022/06/24 09:21:32;;;;;;;4.78;4.45;;;;;;;31.88;62.71;100413.06;5075391;28;70097;-40
2022/06/24 09:24:04;;;;;;;5.00;4.70;;;;;;;32.21;62.99;100474.03;5076476;28;65300;-40
2022/06/24 09:26:41;;;;;;;5.47;4.55;;;;;;;32.20;62.80;100472.38;5054504;28;69818;-41
2022/06/24 09:29:14;;;;;;;5.30;4.93;;;;;;;31.85;62.94;100410.84;5067293;28;65627;-41
2022/06/24 09:31:45;;;;;;;5.43;5.03;;;;;;;32.11;63.05;100446.69;5073516;28;70404;-40
2022/06/24 09:34:20;;;;;;;5.68;5.15;;;;;;;31.95;62.87;100437.38;5067967;28;67296;-38
2022/06/24 09:36:51;;;;;;;5.97;5.43;;;;;;;32.15;62.96;100469.53;5075673;28;70390;-39
2022/06/24 09:39:22;;;;;;;6.30;5.80;;;;;;;32.15;63.10;100469.53;5073102;28;65101;-39
2022/06/24 09:41:58;;;;;;;6.60;5.85;;;;;;;32.07;63.25;100467.19;5070294;28;70354;-40
2022/06/24 09:44:47;;;;;;;6.50;5.53;;;;;;;31.67;63.11;100416.38;5051679;28;67008;-40
2022/06/24 09:47:24;;;;;;;5.82;5.35;;;;;;;32.10;63.15;100477.59;5056965;28;70002;-39
2022/06/24 09:49:59;;;;;;;5.78;5.38;;;;;;;32.10;63.03;100473.00;5069217;28;65898;-39
2022/06/24 09:52:31;;;;;;;6.10;5.60;;;;;;;31.75;62.98;100426.88;5071051;28;70526;-39
2022/06/24 09:55:04;;;;;;;5.80;5.40;;;;;;;32.09;63.32;100489.50;5070887;28;66309;-39
2022/06/24 09:57:35;;;;;;;6.05;5.13;;;;;;;32.05;63.14;100492.69;5071564;28;70699;-39
2022/06/24 10:03:22;;;;;;;5.03;4.63;;;;;;;32.01;63.30;100493.38;5028860;28;68935;-40
2022/06/24 10:05:59;;;;;;;5.35;4.85;;;;;;;31.99;63.33;100504.50;5075900;28;65741;-39
2022/06/24 10:08:34;;;;;;;5.63;5.07;;;;;;;32.01;63.32;100488.81;5072599;28;69211;-41
2022/06/24 10:11:27;;;;;;;5.50;5.10;;;;;;;31.98;63.23;100492.00;5055487;28;66108;-40
2022/06/24 10:13:59;;;;;;;5.47;4.95;;;;;;;31.98;63.24;100475.72;5039438;28;69238;-39
2022/06/24 10:16:31;;;;;;;6.05;5.60;;;;;;;31.92;63.23;100468.50;5077319;28;65957;-41
2022/06/24 10:19:05;;;;;;;5.13;4.72;;;;;;;31.61;63.11;100413.56;5076119;28;70143;-40
2022/06/24 10:21:37;;;;;;;5.00;4.70;;;;;;;31.95;63.26;100470.75;5072323;28;65592;-39
2022/06/24 10:24:13;;;;;;;5.38;5.00;;;;;;;31.94;63.34;100471.81;5055085;28;69702;-40
2022/06/24 10:26:48;;;;;;;7.38;4.57;;;;;;;31.78;63.33;100448.09;5077694;28;66481;-40
2022/06/24 10:29:27;;;;;;;5.10;4.70;;;;;;;31.93;63.39;100483.75;5077601;28;70320;-39
2022/06/24 10:32:04;;;;;;;5.82;5.35;;;;;;;31.91;63.22;100480.44;5078554;28;66021;-40
2022/06/24 10:34:37;;;;;;;4.68;4.28;;;;;;;31.90;63.48;100484.19;5069879;28;69221;-39
2022/06/24 10:37:14;;;;;;;5.50;5.00;;;;;;;31.90;63.42;100489.63;5074206;28;66578;-39
2022/06/24 10:39:54;;;;;;;7.40;4.80;;;;;;;31.85;63.50;100503.06;5060885;28;69042;-40
2022/06/24 10:42:25;;;;;;;5.13;4.70;;;;;;;31.89;63.65;100509.66;5055302;28;66024;-40
2022/06/24 10:45:01;;;;;;;5.28;4.78;;;;;;;31.87;63.70;100514.47;5079656;28;70211;-39
2022/06/24 10:47:35;;;;;;;4.85;4.45;;;;;;;31.89;63.73;100528.63;5072218;28;65559;-39
2022/06/24 10:50:11;;;;;;;6.20;5.03;;;;;;;31.73;63.72;100511.19;5072673;28;70194;-40
2022/06/24 10:52:55;;;;;;;5.40;4.90;;;;;;;31.87;64.33;100533.47;5073294;28;65378;-41
2022/06/24 10:55:33;;;;;;;5.22;4.78;;;;;;;31.79;64.70;100531.13;5073674;28;70521;-40
2022/06/24 10:58:11;;;;;;;9.93;4.55;;;;;;;31.84;64.11;100533.94;5056702;28;66112;-40
2022/06/24 11:00:54;;;;;;;5.50;4.97;;;;;;;31.90;64.24;100533.03;5078040;28;70414;-40
2022/06/24 11:03:30;;;;;;;10.82;4.95;;;;;;;31.87;64.84;100533.47;5069747;28;65624;-40
2022/06/24 11:06:01;;;;;;;6.40;5.03;;;;;;;31.88;64.68;100534.31;5053651;28;70125;-41
2022/06/24 11:08:37;;;;;;;9.00;6.47;;;;;;;31.87;68.28;100543.50;5057708;28;66081;-39
2022/06/24 11:11:09;;;;;;;13.45;5.22;;;;;;;31.89;65.35;100547.63;5072507;28;70097;-39
2022/06/24 11:13:41;;;;;;;7.73;5.43;;;;;;;31.81;65.31;100534.41;5075026;28;65349;-40
2022/06/24 11:16:12;;;;;;;6.75;5.43;;;;;;;31.92;65.04;100552.59;5076539;28;70466;-39
2022/06/24 11:18:43;;;;;;;5.37;4.87;;;;;;;31.94;65.24;100561.34;5079051;28;66091;-40
2022/06/24 11:21:18;;;;;;;5.97;5.35;;;;;;;31.96;65.48;100559.22;5062699;28;69629;-40
2022/06/24 11:23:54;;;;;;;5.28;4.80;;;;;;;31.58;65.78;100487.22;5077484;28;65303;-40
2022/06/24 11:26:25;;;;;;;7.85;5.80;;;;;;;31.97;65.83;100544.59;5075431;27;70457;-41
2022/06/24 11:28:56;;;;;;;12.20;6.67;;;;;;;31.98;65.83;100557.13;5076844;28;66512;-42
2022/06/24 11:31:33;;;;;;;6.63;6.03;;;;;;;31.98;66.19;100550.84;5071153;28;69681;-42
2022/06/24 11:34:04;;;;;;;6.97;6.22;;;;;;;32.01;66.11;100556.63;5060129;28;66426;-39
2022/06/24 11:36:38;;;;;;;7.40;6.03;;;;;;;32.05;66.45;100559.69;5079282;28;70795;-39
2022/06/24 11:39:10;;;;;;;6.60;6.05;;;;;;;32.05;66.58;100557.81;5076385;28;65740;-40
2022/06/24 11:41:47;;;;;;;7.60;6.53;;;;;;;31.85;66.86;100541.03;5076536;28;70768;-39
2022/06/24 11:44:33;;;;;;;7.90;7.00;;;;;;;31.99;67.29;100564.19;5076765;28;66496;-40
2022/06/24 11:47:06;;;;;;;7.13;6.53;;;;;;;32.05;67.01;100575.97;5073551;28;70457;-41
2022/06/24 11:49:42;;;;;;;8.38;6.53;;;;;;;32.07;67.18;100581.16;5079767;28;66607;-39
2022/06/24 11:52:13;;;;;;;7.78;6.93;;;;;;;31.85;70.46;100595.28;5077905;28;70067;-39
2022/06/24 11:54:44;;;;;;;10.10;6.75;;;;;;;31.63;71.81;100602.31;5053266;28;65817;-39
2022/06/24 11:57:15;;;;;;;8.73;7.03;;;;;;;31.47;72.36;100612.75;5072640;28;69184;-39
2022/06/24 11:59:46;;;;;;;8.00;7.30;;;;;;;31.35;72.58;100620.00;5078560;28;66270;-39
2022/06/24 12:02:18;;;;;;;9.60;7.18;;;;;;;31.27;73.29;100625.72;5079423;28;70181;-43
2022/06/24 12:04:50;;;;;;;;;;;;;;;30.90;75.07;100629.31;5074740;28;66689;-41
2022/06/24 12:07:21;;;;;;;7.70;6.95;;;;;;;31.06;73.49;100603.47;5059340;28;70284;-40
2022/06/24 12:09:52;;;;;;;7.30;6.68;;;;;;;31.14;74.24;100622.13;5075490;28;65465;-40
2022/06/24 12:12:23;;;;;;;7.50;6.03;;;;;;;31.12;74.58;100618.84;5078540;28;70282;-40
2022/06/24 12:14:55;;;;;;;7.05;6.45;;;;;;;31.11;74.91;100619.88;5075619;28;66510;-40
2022/06/24 12:17:26;;;;;;;6.88;6.28;;;;;;;31.07;74.91;100626.81;5070556;28;70202;-41
2022/06/24 12:20:01;;;;;;;;;;;;;;;30.77;76.05;100625.91;5079240;28;66332;-39
2022/06/24 12:22:32;;;;;;;11.05;6.63;;;;;;;30.97;75.06;100626.50;5080470;28;70511;-40
2022/06/24 12:25:06;;;;;;;7.00;6.53;;;;;;;30.92;74.96;100620.94;5082415;27;67855;-39
2022/06/24 12:27:39;;;;;;;6.82;6.28;;;;;;;31.00;75.02;100653.13;5080229;28;69590;-40
2022/06/24 12:30:21;;;;;;;7.38;6.72;;;;;;;30.96;74.75;100645.72;5059823;28;66099;-39
2022/06/24 12:32:58;;;;;;;7.43;6.80;;;;;;;30.96;74.87;100651.13;5082031;28;70052;-42
2022/06/24 12:35:41;;;;;;;9.85;6.72;;;;;;;30.72;75.16;100627.38;5062431;28;66355;-41
2022/06/24 12:38:20;;;;;;;7.95;6.72;;;;;;;30.82;75.38;100645.03;5080949;28;70582;-40
2022/06/24 12:40:50;;;;;;;6.78;6.07;;;;;;;30.86;74.88;100667.91;5077260;28;67272;-39
2022/06/24 12:43:28;;;;;;;7.40;6.78;;;;;;;30.81;75.09;100665.03;5077651;28;70590;-40
2022/06/24 12:46:03;;;;;;;6.23;5.83;;;;;;;30.77;75.35;100663.81;5077651;28;65506;-39
2022/06/24 12:51:26;;;;;;;7.10;6.50;;;;;;;30.82;77.11;100677.53;5080408;28;65732;-38
2022/06/24 12:53:58;;;;;;;24.45;7.22;;;;;;;30.88;76.76;100680.16;5078702;28;69805;-37
2022/06/24 12:56:32;;;;;;;;;;;;;;;30.55;77.67;100677.75;5079937;28;66207;-39
2022/06/24 12:59:03;;;;;;;11.77;6.72;;;;;;;30.75;77.57;100674.84;5077372;28;69188;-39
2022/06/24 13:01:45;;;;;;;7.85;6.15;;;;;;;30.73;76.97;100668.84;5079257;28;67412;-39
2022/06/24 13:04:16;;;;;;;7.28;6.38;;;;;;;30.87;77.27;100691.19;5077522;28;70565;-39
2022/06/24 13:06:47;;;;;;;8.88;5.85;;;;;;;30.87;76.71;100685.78;5080257;28;66290;-39
2022/06/24 13:09:18;;;;;;;7.22;6.30;;;;;;;30.90;76.22;100693.50;5062285;28;69658;-38
2022/06/24 13:11:49;;;;;;;7.35;6.65;;;;;;;30.91;76.78;100687.00;5081470;28;66191;-38
2022/06/24 13:14:20;;;;;;;7.55;6.85;;;;;;;30.92;76.48;100696.78;5078317;28;69412;-37
2022/06/24 13:16:51;;;;;;;7.78;6.22;;;;;;;30.82;75.26;100691.06;5079143;28;67064;-38
2022/06/24 13:19:29;;;;;;;7.40;6.20;;;;;;;30.62;72.79;100683.94;5074545;28;69128;-39
2022/06/24 13:22:00;;;;;;;6.95;6.43;;;;;;;30.44;70.74;100676.59;5077825;28;68286;-39
2022/06/24 13:24:33;;;;;;;6.78;6.28;;;;;;;30.28;68.97;100680.72;5080724;28;70026;-38
2022/06/24 13:27:05;;;;;;;6.68;6.18;;;;;;;30.16;67.10;100684.31;5078163;28;65257;-37
2022/06/24 13:29:36;;;;;;;6.55;6.05;;;;;;;29.98;66.08;100698.63;5079276;28;69378;-38
2022/06/24 13:32:07;;;;;;;6.13;5.50;;;;;;;30.09;65.94;100699.75;5078632;28;66309;-39
2022/06/24 13:34:39;;;;;;;6.63;5.30;;;;;;;30.17;65.09;100703.06;5073677;28;69066;-39
2022/06/24 13:37:11;;;;;;;9.63;5.55;;;;;;;30.26;64.01;100718.00;5077931;27;65843;-39
2022/06/24 13:39:42;;;;;;;6.25;4.72;;;;;;;30.28;62.71;100715.03;5078219;28;70461;-38
2022/06/24 13:42:13;;;;;;;10.82;5.45;;;;;;;30.32;62.10;100712.75;5079129;28;66610;-37
2022/06/24 13:44:44;;;;;;;6.72;5.35;;;;;;;30.33;61.02;100708.97;5075680;28;71104;-38
2022/06/24 13:47:17;;;;;;;13.03;5.23;;;;;;;30.27;61.19;100714.22;5074774;28;66022;-38
2022/06/24 13:49:48;;;;;;;11.63;5.80;;;;;;;30.25;61.14;100705.50;5073074;28;69933;-37
2022/06/24 13:52:18;;;;;;;5.88;5.38;;;;;;;30.25;59.97;100719.00;5076827;28;66847;-40
2022/06/24 13:54:50;;;;;;;5.72;5.25;;;;;;;30.22;60.04;100711.34;5073343;28;68818;-40
2022/06/24 13:57:21;;;;;;;11.60;5.55;;;;;;;30.22;59.81;100715.94;5070641;28;66852;-40
2022/06/24 13:59:52;;;;;;;15.73;5.10;;;;;;;30.12;60.72;100727.22;5054205;28;69613;-39
2022/06/24 14:02:23;;;;;;;13.10;5.10;;;;;;;30.06;60.84;100714.56;5072487;28;65057;-38
2022/06/24 14:04:57;;;;;;;6.07;5.55;;;;;;;30.04;59.99;100719.38;5074481;28;69447;-38
2022/06/24 14:07:29;;;;;;;16.88;5.20;;;;;;;30.03;60.70;100717.69;5077194;28;65533;-39
2022/06/24 14:10:00;;;;;;;9.40;5.40;;;;;;;29.96;60.95;100716.94;5076010;28;70546;-37
2022/06/24 14:12:53;;;;;;;11.77;5.18;;;;;;;29.96;60.79;100720.47;5076895;28;65696;-37
2022/06/24 14:15:24;;;;;;;7.07;5.00;;;;;;;29.94;59.64;100721.72;5072512;28;69802;-36
2022/06/24 14:17:55;;;;;;;8.67;5.60;;;;;;;29.93;59.75;100728.19;5075058;28;66036;-38
2022/06/24 14:20:26;;;;;;;7.85;5.13;;;;;;;29.89;59.38;100726.94;5074970;28;70952;-37
2022/06/24 14:25:47;;;;;;;5.40;3.90;;;;;;;29.84;58.97;100725.72;5079012;28;69826;-39
2022/06/24 14:28:18;;;;;;;10.32;4.43;;;;;;;29.92;58.16;100737.31;5078354;28;66263;-38
2022/06/24 14:30:49;;;;;;;6.05;4.15;;;;;;;29.94;59.08;100741.47;5059678;28;69169;-38
2022/06/24 14:33:20;;;;;;;10.25;4.20;;;;;;;29.90;57.47;100740.25;5075380;28;67039;-38